Terminal Aerodrome Forecast
Issued by NWS

Home | Current Version | Previous Version | Text Only | Print | Product List | Glossary On
Versions: 1 2 3 4 5 6 7 8 9 10 11 12 13
000
FTUS46 KMTR 292300 RRA
TAFSJC
TAF
KSJC 292345Z 3000/3024 32010KT P6SM BKN200
     FM300500 32005KT P6SM SCT200
     FM301000 15003KT P6SM BKN012 OVC200
     FM301800 34012KT P6SM SCT015 BKN200=

USA.gov is the U.S. government's official web portal to all federal, state and local government web resources and services.